createdAt,value
2023-09-05T00:10:49.821Z,89.8
2023-09-05T00:50:54.180Z,90.1
2023-09-05T01:10:50.410Z,90.4
2023-09-05T01:30:50.563Z,90.1
2023-09-05T01:50:49.988Z,90.8
2023-09-05T02:10:50.011Z,91
2023-09-05T02:30:50.766Z,91.3
2023-09-05T02:50:50.113Z,91.6
2023-09-05T03:10:50.060Z,91.7
2023-09-05T03:30:50.214Z,92.3
2023-09-05T03:50:50.353Z,92.2
2023-09-05T04:10:50.401Z,92
2023-09-05T04:30:50.625Z,92.3
2023-09-05T04:50:50.232Z,92.7
2023-09-05T05:10:51.555Z,93.1
2023-09-05T05:30:50.514Z,93.7
2023-09-05T05:50:50.873Z,93.5
2023-09-05T06:10:50.513Z,91.6
2023-09-05T06:30:51.099Z,89.1
2023-09-05T06:50:50.577Z,86.1
2023-09-05T07:10:50.531Z,79.7
2023-09-05T07:30:50.631Z,77.9
2023-09-05T07:50:52.518Z,76
2023-09-05T08:10:50.644Z,74.4
2023-09-05T08:30:50.794Z,71.1
2023-09-05T08:50:50.711Z,66.7
2023-09-05T09:10:50.739Z,63.2
2023-09-05T09:30:51.213Z,60.9
2023-09-05T09:50:50.791Z,60.3
2023-09-05T10:10:50.818Z,56.7
2023-09-05T10:30:50.788Z,50.4
2023-09-05T10:50:50.814Z,45.4
2023-09-05T11:10:50.854Z,42.9
2023-09-05T11:30:50.873Z,41.4
2023-09-05T11:50:51.034Z,40.2
2023-09-05T12:10:51.123Z,38.6
2023-09-05T12:30:52.077Z,40.4
2023-09-05T12:50:51.413Z,37.1
2023-09-05T13:10:52.594Z,36.4
2023-09-05T13:30:51.046Z,36.7
2023-09-05T13:50:51.565Z,38.1
2023-09-05T14:10:51.172Z,41.3
2023-09-05T14:30:51.569Z,42.4
2023-09-05T14:50:51.317Z,43.4
2023-09-05T15:10:51.430Z,44.8
2023-09-05T15:30:51.305Z,45.5
2023-09-05T15:50:52.126Z,46.8
2023-09-05T16:10:51.216Z,48.5
2023-09-05T16:30:51.601Z,50.9
2023-09-05T16:50:51.668Z,51.7
2023-09-05T17:10:51.400Z,53.5
2023-09-05T17:30:52.341Z,54
2023-09-05T17:50:51.320Z,60.6
2023-09-05T18:10:51.822Z,65
2023-09-05T18:30:52.832Z,69.6
2023-09-05T18:50:51.764Z,71.3
2023-09-05T19:10:51.473Z,73.2
2023-09-05T19:30:53.920Z,75.3
2023-09-05T19:50:51.502Z,77
2023-09-05T20:10:51.514Z,79.2
2023-09-05T20:30:51.967Z,81.1
2023-09-05T20:50:51.938Z,82.3
2023-09-05T21:10:51.647Z,83.5
2023-09-05T21:30:52.823Z,85.1
2023-09-05T21:50:51.700Z,85.9
2023-09-05T22:10:51.853Z,86.8
2023-09-05T22:30:51.852Z,87.7
2023-09-05T22:50:51.762Z,88.5
2023-09-05T23:10:51.800Z,89.3
2023-09-05T23:30:51.799Z,89.7
2023-09-05T23:50:51.920Z,90.2
